createdAt,value
2017-11-07T00:00:36.591Z,97.31
2017-11-07T00:03:04.144Z,97.34
2017-11-07T00:05:31.740Z,97.38
2017-11-07T00:07:59.294Z,97.43
2017-11-07T00:10:27.889Z,97.44
2017-11-07T00:12:55.444Z,97.41
2017-11-07T00:15:22.993Z,97.42
2017-11-07T00:17:50.569Z,97.42
2017-11-07T00:20:18.110Z,97.41
2017-11-07T00:22:45.693Z,97.41
2017-11-07T00:25:13.232Z,97.43
2017-11-07T00:27:40.838Z,97.46
2017-11-07T00:30:08.383Z,97.42
2017-11-07T00:32:36.222Z,97.45
2017-11-07T00:35:03.787Z,97.46
2017-11-07T00:37:31.762Z,97.55
2017-11-07T00:39:59.333Z,97.51
2017-11-07T00:42:26.918Z,97.56
2017-11-07T00:44:54.484Z,97.56
2017-11-07T00:47:22.031Z,97.62
2017-11-07T00:49:49.995Z,97.65
2017-11-07T00:52:17.555Z,97.71
2017-11-07T00:54:45.102Z,97.77
2017-11-07T00:57:12.677Z,97.81
2017-11-07T00:59:40.227Z,97.80
2017-11-07T01:02:07.819Z,97.84
2017-11-07T01:04:35.359Z,97.85
2017-11-07T01:07:02.941Z,97.84
2017-11-07T01:09:30.477Z,97.83
2017-11-07T01:11:58.024Z,97.81
2017-11-07T01:14:25.590Z,97.81
2017-11-07T01:16:53.161Z,97.80
2017-11-07T01:19:20.728Z,97.77
2017-11-07T01:21:48.340Z,97.77
2017-11-07T01:24:16.215Z,97.72
2017-11-07T01:26:43.764Z,97.69
2017-11-07T01:29:11.320Z,97.68
2017-11-07T01:31:38.906Z,97.69
2017-11-07T01:34:06.466Z,97.67
2017-11-07T01:36:34.073Z,97.70
2017-11-07T01:39:01.616Z,97.65
2017-11-07T01:41:29.578Z,97.69
2017-11-07T01:43:57.134Z,97.69
2017-11-07T01:46:24.667Z,97.66
2017-11-07T01:48:52.223Z,97.62
2017-11-07T01:51:19.767Z,97.59
2017-11-07T01:53:47.327Z,97.56
2017-11-07T01:56:14.886Z,97.47
2017-11-07T01:58:42.788Z,97.37
2017-11-07T02:01:10.318Z,97.40
2017-11-07T02:03:37.854Z,97.37
2017-11-07T02:06:05.444Z,97.36
2017-11-07T02:08:33.000Z,97.35
2017-11-07T02:11:00.824Z,97.32
2017-11-07T02:13:28.364Z,97.21
2017-11-07T02:15:55.940Z,97.21
2017-11-07T02:18:23.588Z,97.18
2017-11-07T02:20:51.150Z,97.16
2017-11-07T02:23:18.870Z,97.17
2017-11-07T02:25:46.392Z,97.15
2017-11-07T02:28:14.319Z,97.19
2017-11-07T02:30:41.870Z,97.24
2017-11-07T02:33:09.424Z,97.25
2017-11-07T02:35:37.010Z,97.20
2017-11-07T02:38:04.561Z,97.15
2017-11-07T02:40:32.120Z,97.15
2017-11-07T02:42:59.664Z,97.09
2017-11-07T02:45:27.544Z,96.96
2017-11-07T02:47:55.095Z,96.88
2017-11-07T02:50:22.677Z,96.90
2017-11-07T02:52:50.244Z,96.77
2017-11-07T02:55:17.927Z,96.72
2017-11-07T02:57:46.171Z,96.51
2017-11-07T03:00:13.722Z,96.43
2017-11-07T03:02:41.275Z,96.44
2017-11-07T03:05:08.829Z,96.34
2017-11-07T03:07:36.367Z,96.30
2017-11-07T03:10:04.270Z,96.27
2017-11-07T03:12:31.813Z,96.30
2017-11-07T03:14:59.364Z,96.21
2017-11-07T03:17:26.923Z,96.23
2017-11-07T03:19:54.552Z,96.27
2017-11-07T03:22:22.331Z,96.32
2017-11-07T03:24:49.858Z,96.39
2017-11-07T03:27:17.552Z,96.35
2017-11-07T03:29:45.113Z,96.37
2017-11-07T03:32:13.039Z,96.41
2017-11-07T03:34:40.580Z,96.47
2017-11-07T03:37:08.109Z,96.52
2017-11-07T03:39:35.677Z,96.52
2017-11-07T03:42:03.224Z,96.50
2017-11-07T03:44:31.031Z,96.48
2017-11-07T03:46:58.586Z,96.50
2017-11-07T03:49:26.134Z,96.53
2017-11-07T03:51:53.698Z,96.54
2017-11-07T03:54:21.242Z,96.51
2017-11-07T03:56:48.808Z,96.54
2017-11-07T03:59:16.362Z,96.58
2017-11-07T04:01:44.256Z,96.61
2017-11-07T04:04:11.807Z,96.51
2017-11-07T04:06:39.364Z,96.52
2017-11-07T04:09:07.148Z,96.54
2017-11-07T04:11:34.676Z,96.61
2017-11-07T04:14:02.240Z,96.66
2017-11-07T04:16:29.853Z,96.69
2017-11-07T04:18:57.734Z,96.69
2017-11-07T04:21:25.271Z,96.67
2017-11-07T04:23:52.818Z,96.71
2017-11-07T04:26:20.386Z,96.67
2017-11-07T04:28:47.948Z,96.70
2017-11-07T04:31:15.640Z,96.76
2017-11-07T04:33:43.163Z,96.76
2017-11-07T04:36:11.017Z,96.79
2017-11-07T04:38:38.555Z,96.85
2017-11-07T04:41:06.096Z,96.87
2017-11-07T04:43:33.656Z,96.87
2017-11-07T04:46:01.240Z,96.85
2017-11-07T04:48:28.851Z,96.91
2017-11-07T04:50:56.453Z,96.91
2017-11-07T04:53:24.539Z,96.94
2017-11-07T04:55:52.084Z,96.94
2017-11-07T04:58:19.619Z,96.94
2017-11-07T05:00:47.177Z,96.93
2017-11-07T05:03:14.721Z,96.95
2017-11-07T05:05:43.045Z,96.94
2017-11-07T05:08:10.591Z,96.95
2017-11-07T05:10:38.485Z,96.97
2017-11-07T05:13:06.048Z,96.96
2017-11-07T05:15:33.591Z,96.92
2017-11-07T05:18:01.179Z,96.94
2017-11-07T05:20:28.740Z,97.00
2017-11-07T05:22:56.602Z,96.95
2017-11-07T05:25:24.285Z,96.95
2017-11-07T05:27:51.834Z,96.90
2017-11-07T05:30:19.377Z,96.85
2017-11-07T05:32:46.980Z,96.82
2017-11-07T05:35:14.594Z,96.80
2017-11-07T05:37:42.138Z,96.71
2017-11-07T05:40:09.714Z,96.61
2017-11-07T05:42:37.262Z,96.64
2017-11-07T05:45:04.806Z,96.61
2017-11-07T05:47:32.379Z,96.53
2017-11-07T05:49:59.910Z,96.37
2017-11-07T05:52:27.467Z,96.42
2017-11-07T05:54:55.008Z,96.38
2017-11-07T05:57:22.844Z,96.38
2017-11-07T05:59:50.447Z,96.31
2017-11-07T06:02:18.099Z,96.32
2017-11-07T06:04:45.659Z,96.31
2017-11-07T06:07:13.260Z,96.32
2017-11-07T06:09:40.811Z,96.33
2017-11-07T06:12:08.333Z,96.33
2017-11-07T06:14:35.902Z,96.38
2017-11-07T06:17:03.435Z,96.44
2017-11-07T06:19:30.995Z,96.35
2017-11-07T06:21:58.551Z,96.41
2017-11-07T06:24:26.092Z,96.43
2017-11-07T06:26:53.664Z,96.42
2017-11-07T06:29:21.203Z,96.32
2017-11-07T06:31:48.755Z,96.33
2017-11-07T06:34:16.364Z,96.35
2017-11-07T06:36:44.045Z,96.37
2017-11-07T06:39:11.610Z,96.38
2017-11-07T06:41:39.269Z,96.44
2017-11-07T06:44:07.115Z,96.40
2017-11-07T06:46:34.655Z,96.39
2017-11-07T06:49:02.541Z,96.43
2017-11-07T06:51:30.477Z,96.42
2017-11-07T06:53:58.030Z,96.46
2017-11-07T06:56:25.617Z,96.45
2017-11-07T06:58:53.159Z,96.44
2017-11-07T07:01:21.144Z,96.43
2017-11-07T07:03:48.691Z,96.40
2017-11-07T07:06:16.249Z,96.44
2017-11-07T07:08:43.827Z,96.49
2017-11-07T07:11:11.437Z,96.51
2017-11-07T07:13:38.994Z,96.52
2017-11-07T07:16:06.533Z,96.54
2017-11-07T07:18:34.529Z,96.50
2017-11-07T07:21:02.083Z,96.46
2017-11-07T07:23:29.633Z,96.49
2017-11-07T07:25:57.179Z,96.57
2017-11-07T07:28:24.719Z,96.51
2017-11-07T07:30:52.269Z,96.53
2017-11-07T07:33:19.803Z,96.51
2017-11-07T07:35:47.385Z,96.53
2017-11-07T07:38:15.041Z,96.50
2017-11-07T07:40:42.618Z,96.53
2017-11-07T07:43:10.186Z,96.55
2017-11-07T07:45:37.731Z,96.53
2017-11-07T07:48:05.331Z,96.55
2017-11-07T07:50:32.880Z,96.52
2017-11-07T07:53:00.502Z,96.62
2017-11-07T07:55:28.059Z,96.59
2017-11-07T07:57:55.619Z,96.57
2017-11-07T08:00:23.180Z,96.54
2017-11-07T08:02:50.735Z,96.53
2017-11-07T08:05:18.329Z,96.50
2017-11-07T08:07:45.863Z,96.44
2017-11-07T08:10:13.400Z,96.39
2017-11-07T08:12:40.964Z,96.28
2017-11-07T08:15:08.485Z,96.19
2017-11-07T08:17:36.036Z,96.12
2017-11-07T08:20:03.571Z,95.76
2017-11-07T08:22:31.138Z,95.58
2017-11-07T08:24:58.691Z,95.32
2017-11-07T08:27:26.551Z,95.10
2017-11-07T08:29:54.129Z,94.87
2017-11-07T08:32:21.677Z,94.75
2017-11-07T08:34:49.247Z,94.58
2017-11-07T08:37:16.780Z,94.46
2017-11-07T08:39:44.346Z,94.08
2017-11-07T08:42:11.933Z,94.08
2017-11-07T08:44:39.520Z,94.11
2017-11-07T08:47:07.068Z,94.03
2017-11-07T08:49:34.638Z,93.78
2017-11-07T08:52:02.212Z,93.75
2017-11-07T08:54:29.772Z,93.63
2017-11-07T08:56:57.360Z,93.30
2017-11-07T08:59:24.906Z,93.00
2017-11-07T09:01:52.475Z,92.80
2017-11-07T09:04:20.012Z,92.58
2017-11-07T09:06:47.916Z,92.36
2017-11-07T09:09:15.489Z,92.35
2017-11-07T09:11:43.182Z,92.23
2017-11-07T09:14:10.748Z,92.13
2017-11-07T09:16:38.314Z,92.26
2017-11-07T09:19:06.123Z,91.83
2017-11-07T09:21:33.702Z,91.54
2017-11-07T09:24:01.283Z,91.46
2017-11-07T09:26:29.026Z,91.64
2017-11-07T09:28:56.594Z,91.30
2017-11-07T09:31:24.341Z,91.04
2017-11-07T09:33:51.880Z,91.10
2017-11-07T09:36:19.459Z,90.70
2017-11-07T09:38:47.034Z,90.69
2017-11-07T09:41:14.582Z,90.21
2017-11-07T09:43:42.462Z,90.19
2017-11-07T09:46:10.000Z,90.35
2017-11-07T09:48:37.565Z,90.36
2017-11-07T09:51:05.125Z,89.19
2017-11-07T09:53:32.675Z,89.04
2017-11-07T09:56:00.255Z,89.37
2017-11-07T09:58:27.823Z,89.60
2017-11-07T10:00:55.678Z,89.79
2017-11-07T10:03:23.642Z,89.74
2017-11-07T10:05:51.195Z,89.08
2017-11-07T10:08:18.777Z,89.24
2017-11-07T10:10:46.609Z,88.64
2017-11-07T10:13:14.229Z,88.06
2017-11-07T10:15:41.790Z,87.81
2017-11-07T10:18:09.498Z,87.81
2017-11-07T10:20:37.043Z,87.75
2017-11-07T10:23:05.249Z,88.01
2017-11-07T10:25:32.802Z,87.99
2017-11-07T10:28:00.357Z,87.68
2017-11-07T10:30:27.919Z,87.71
2017-11-07T10:32:55.469Z,87.68
2017-11-07T10:35:23.204Z,87.47
2017-11-07T10:37:50.735Z,87.60
2017-11-07T10:40:18.328Z,87.61
2017-11-07T10:42:45.889Z,87.50
2017-11-07T10:45:13.449Z,87.67
2017-11-07T10:47:41.055Z,87.66
2017-11-07T10:50:08.631Z,87.53
2017-11-07T10:52:36.190Z,86.67
2017-11-07T10:55:03.733Z,86.63
2017-11-07T10:57:31.315Z,86.84
2017-11-07T10:59:59.248Z,86.51
2017-11-07T11:02:26.789Z,86.38
2017-11-07T11:04:54.380Z,86.50
2017-11-07T11:07:21.921Z,85.47
2017-11-07T11:09:50.873Z,86.08
2017-11-07T11:12:18.412Z,85.65
2017-11-07T11:14:46.358Z,85.38
2017-11-07T11:17:13.922Z,85.38
2017-11-07T11:19:41.471Z,85.71
2017-11-07T11:22:09.041Z,85.50
2017-11-07T11:24:36.585Z,85.75
2017-11-07T11:27:04.159Z,85.37
2017-11-07T11:29:31.693Z,85.62
2017-11-07T11:31:59.272Z,85.26
2017-11-07T11:34:26.832Z,85.24
2017-11-07T11:36:54.379Z,85.26
2017-11-07T11:39:21.941Z,85.09
2017-11-07T11:41:49.488Z,84.49
2017-11-07T11:44:17.071Z,84.79
2017-11-07T11:46:44.605Z,84.86
2017-11-07T11:49:14.891Z,84.87
2017-11-07T11:51:42.480Z,84.95
2017-11-07T11:54:10.027Z,85.00
2017-11-07T11:56:37.589Z,85.27
2017-11-07T11:59:05.132Z,85.44
2017-11-07T12:01:32.713Z,85.30
2017-11-07T12:04:00.261Z,85.38
2017-11-07T12:06:27.825Z,85.42
2017-11-07T12:08:55.357Z,85.49
2017-11-07T12:11:23.075Z,85.57
2017-11-07T12:13:50.639Z,85.54
2017-11-07T12:16:18.201Z,85.63
2017-11-07T12:18:45.802Z,85.82
2017-11-07T12:21:13.345Z,86.13
2017-11-07T12:23:40.919Z,85.92
2017-11-07T12:26:08.461Z,86.17
2017-11-07T12:28:36.056Z,86.16
2017-11-07T12:31:03.604Z,86.42
2017-11-07T12:33:31.159Z,86.31
2017-11-07T12:35:58.919Z,86.31
2017-11-07T12:38:26.463Z,86.25
2017-11-07T12:40:54.043Z,86.28
2017-11-07T12:43:21.597Z,86.24
2017-11-07T12:45:49.183Z,86.33
2017-11-07T12:48:16.835Z,86.34
2017-11-07T12:50:56.340Z,86.46
2017-11-07T12:53:23.903Z,85.93
2017-11-07T12:55:51.469Z,86.05
2017-11-07T12:58:19.045Z,86.05
2017-11-07T13:00:46.588Z,85.88
2017-11-07T13:03:14.161Z,85.77
2017-11-07T13:05:41.704Z,86.23
2017-11-07T13:08:09.270Z,85.88
2017-11-07T13:10:36.834Z,85.85
2017-11-07T13:13:04.382Z,85.74
2017-11-07T13:15:31.950Z,85.60
2017-11-07T13:17:59.497Z,85.82
2017-11-07T13:20:27.163Z,84.66
2017-11-07T13:22:54.733Z,84.66
2017-11-07T13:25:22.307Z,85.03
2017-11-07T13:27:49.863Z,84.85
2017-11-07T13:30:17.428Z,84.38
2017-11-07T13:32:45.001Z,84.22
2017-11-07T13:35:12.551Z,84.42
2017-11-07T13:37:40.111Z,84.52
2017-11-07T13:40:07.664Z,84.52
2017-11-07T13:42:35.229Z,84.39
2017-11-07T13:45:02.791Z,84.37
2017-11-07T13:47:30.385Z,84.66
2017-11-07T13:49:57.945Z,84.71
2017-11-07T13:52:25.492Z,84.73
2017-11-07T13:54:53.080Z,84.58
2017-11-07T13:57:20.623Z,84.60
2017-11-07T13:59:48.199Z,84.65
2017-11-07T14:02:15.752Z,84.71
2017-11-07T14:04:43.345Z,84.73
2017-11-07T14:07:11.009Z,84.77
2017-11-07T14:09:38.597Z,84.78
2017-11-07T14:12:06.218Z,84.71
2017-11-07T14:14:33.791Z,85.00
2017-11-07T14:17:01.384Z,84.77
2017-11-07T14:19:28.910Z,84.66
2017-11-07T14:21:56.793Z,84.57
2017-11-07T14:24:24.332Z,84.61
2017-11-07T14:26:51.883Z,84.76
2017-11-07T14:29:19.432Z,84.92
2017-11-07T14:31:46.970Z,84.81
2017-11-07T14:34:14.547Z,84.99
2017-11-07T14:36:42.110Z,84.85
2017-11-07T14:39:09.705Z,84.82
2017-11-07T14:41:37.267Z,84.93
2017-11-07T14:44:04.822Z,84.98
2017-11-07T14:46:32.414Z,84.90
2017-11-07T14:48:59.973Z,84.75
2017-11-07T14:51:27.582Z,84.58
2017-11-07T14:53:55.128Z,84.33
2017-11-07T14:56:22.836Z,84.20
2017-11-07T14:58:50.367Z,84.47
2017-11-07T15:01:17.909Z,84.72
2017-11-07T15:03:45.494Z,84.72
2017-11-07T15:06:13.040Z,84.90
2017-11-07T15:08:40.618Z,84.79
2017-11-07T15:11:08.180Z,84.99
2017-11-07T15:13:35.732Z,85.10
2017-11-07T15:16:03.464Z,85.25
2017-11-07T15:18:31.006Z,85.25
2017-11-07T15:20:58.584Z,85.19
2017-11-07T15:23:26.133Z,85.20
2017-11-07T15:25:53.725Z,85.24
2017-11-07T15:28:21.299Z,85.29
2017-11-07T15:30:48.841Z,85.02
2017-11-07T15:33:16.434Z,84.92
2017-11-07T15:35:43.985Z,84.75
2017-11-07T15:38:11.566Z,84.85
2017-11-07T15:40:39.130Z,84.90
2017-11-07T15:43:06.707Z,84.92
2017-11-07T15:45:34.441Z,84.93
2017-11-07T15:48:01.991Z,85.03
2017-11-07T15:50:29.560Z,84.73
2017-11-07T15:52:57.159Z,84.73
2017-11-07T15:55:24.903Z,84.71
2017-11-07T15:57:52.496Z,84.59
2017-11-07T16:00:20.676Z,84.38
2017-11-07T16:02:48.259Z,84.37
2017-11-07T16:05:15.815Z,84.22
2017-11-07T16:07:43.407Z,83.98
2017-11-07T16:10:11.066Z,83.92
2017-11-07T16:12:38.621Z,84.00
2017-11-07T16:15:06.299Z,84.14
2017-11-07T16:17:33.872Z,84.08
2017-11-07T16:20:01.453Z,83.91
2017-11-07T16:22:29.159Z,83.73
2017-11-07T16:24:56.913Z,83.60
2017-11-07T16:27:24.465Z,83.48
2017-11-07T16:29:52.033Z,83.46
2017-11-07T16:32:19.806Z,83.53
2017-11-07T16:34:47.364Z,83.46
2017-11-07T16:37:14.979Z,83.48
2017-11-07T16:39:42.709Z,83.59
2017-11-07T16:42:12.798Z,83.72
2017-11-07T16:44:40.419Z,83.79
2017-11-07T16:47:07.993Z,83.76
2017-11-07T16:49:36.247Z,83.68
2017-11-07T16:52:03.827Z,83.68
2017-11-07T16:54:31.420Z,83.77
2017-11-07T16:56:59.112Z,83.87
2017-11-07T16:59:27.398Z,83.88
2017-11-07T17:01:54.956Z,83.97
2017-11-07T17:04:22.551Z,83.92
2017-11-07T17:06:50.112Z,84.03
2017-11-07T17:09:17.698Z,84.04
2017-11-07T17:11:45.283Z,84.19
2017-11-07T17:14:12.888Z,84.17
2017-11-07T17:16:40.437Z,84.06
2017-11-07T17:19:08.377Z,83.86
2017-11-07T17:21:35.959Z,84.02
2017-11-07T17:24:03.544Z,84.03
2017-11-07T17:26:31.146Z,83.98
2017-11-07T17:28:58.726Z,83.99
2017-11-07T17:31:26.343Z,84.10
2017-11-07T17:33:53.951Z,84.13
2017-11-07T17:36:21.517Z,83.97
2017-11-07T17:38:49.113Z,84.02
2017-11-07T17:41:16.865Z,84.17
2017-11-07T17:43:44.443Z,84.18
2017-11-07T17:46:12.026Z,84.18
2017-11-07T17:48:39.636Z,83.98
2017-11-07T17:51:07.202Z,84.16
2017-11-07T17:53:34.791Z,84.20
2017-11-07T17:56:02.392Z,84.09
2017-11-07T17:58:30.661Z,84.24
2017-11-07T18:01:02.032Z,84.22
2017-11-07T18:03:29.607Z,84.36
2017-11-07T18:05:57.614Z,84.31
2017-11-07T18:08:25.389Z,84.44
2017-11-07T18:10:52.991Z,84.58
2017-11-07T18:13:20.927Z,84.77
2017-11-07T18:15:48.510Z,84.78
2017-11-07T18:18:16.214Z,84.88
2017-11-07T18:20:43.828Z,84.97
2017-11-07T18:23:11.427Z,84.91
2017-11-07T18:25:39.021Z,85.01
2017-11-07T18:28:06.788Z,85.02
2017-11-07T18:30:34.408Z,85.30
2017-11-07T18:33:02.146Z,85.37
2017-11-07T18:35:29.740Z,85.39
2017-11-07T18:37:57.678Z,85.58
2017-11-07T18:40:25.276Z,85.55
2017-11-07T18:42:52.999Z,85.60
2017-11-07T18:45:20.617Z,85.72
2017-11-07T18:47:48.292Z,85.84
2017-11-07T18:50:15.913Z,85.81
2017-11-07T18:52:43.533Z,86.06
2017-11-07T18:55:11.213Z,85.77
2017-11-07T18:57:38.892Z,85.86
2017-11-07T19:00:06.832Z,85.88
2017-11-07T19:02:34.596Z,85.93
2017-11-07T19:05:02.940Z,85.65
2017-11-07T19:07:30.680Z,85.72
2017-11-07T19:09:59.012Z,85.75
2017-11-07T19:12:26.796Z,85.72
2017-11-07T19:14:54.661Z,85.51
2017-11-07T19:17:22.642Z,85.61
2017-11-07T19:19:50.572Z,85.68
2017-11-07T19:22:18.548Z,85.72
2017-11-07T19:24:46.340Z,85.80
2017-11-07T19:27:14.069Z,85.50
2017-11-07T19:29:41.858Z,85.58
2017-11-07T19:32:09.562Z,85.48
2017-11-07T19:34:38.013Z,85.66
2017-11-07T19:37:05.754Z,85.84
2017-11-07T19:39:33.646Z,85.79
2017-11-07T19:42:01.389Z,85.97
2017-11-07T19:44:29.181Z,86.06
2017-11-07T19:46:57.017Z,86.00
2017-11-07T19:49:25.668Z,86.09
2017-11-07T19:51:53.906Z,86.09
2017-11-07T19:54:21.980Z,86.17
2017-11-07T19:56:50.150Z,86.19
2017-11-07T19:59:18.014Z,86.39
2017-11-07T20:01:45.985Z,86.50
2017-11-07T20:04:13.863Z,86.51
2017-11-07T20:19:46.912Z,86.66
2017-11-07T20:22:15.645Z,86.65
2017-11-07T20:24:43.468Z,86.59
2017-11-07T20:40:16.491Z,86.75
2017-11-07T20:42:44.728Z,86.80
2017-11-07T20:45:12.530Z,86.50
2017-11-07T20:47:40.339Z,86.61
2017-11-07T20:50:08.257Z,86.85
2017-11-07T20:52:36.415Z,86.93
2017-11-07T20:55:04.282Z,86.70
2017-11-07T20:57:31.965Z,86.66
2017-11-07T20:59:59.768Z,86.67
2017-11-07T21:02:27.539Z,86.49
2017-11-07T21:04:55.635Z,86.37
2017-11-07T21:07:23.377Z,86.47
2017-11-07T21:09:51.126Z,86.62
2017-11-07T21:12:20.442Z,86.64
2017-11-07T21:14:48.140Z,86.67
2017-11-07T21:17:15.864Z,86.56
2017-11-07T21:19:43.529Z,86.43
2017-11-07T21:22:11.330Z,86.60
2017-11-07T21:24:39.017Z,86.50
2017-11-07T21:27:06.660Z,86.50
2017-11-07T21:29:34.334Z,86.34
2017-11-07T21:32:01.903Z,86.27
2017-11-07T21:34:32.694Z,86.29
2017-11-07T21:37:00.320Z,86.39
2017-11-07T21:39:27.973Z,86.46
2017-11-07T21:41:55.522Z,86.40
2017-11-07T21:44:23.183Z,86.48
2017-11-07T21:46:50.825Z,86.54
2017-11-07T21:49:18.409Z,86.60
2017-11-07T21:51:46.319Z,86.53
2017-11-07T21:54:15.275Z,86.73
2017-11-07T21:56:42.836Z,86.93
2017-11-07T21:59:10.521Z,86.92
2017-11-07T22:01:38.077Z,87.03
2017-11-07T22:04:05.983Z,86.97
2017-11-07T22:06:33.549Z,86.89
2017-11-07T22:09:01.206Z,87.01
2017-11-07T22:11:29.866Z,87.07
2017-11-07T22:13:57.445Z,87.12
2017-11-07T22:16:25.025Z,87.03
2017-11-07T22:18:53.600Z,87.03
2017-11-07T22:21:21.322Z,87.06
2017-11-07T22:23:48.895Z,87.16
2017-11-07T22:26:16.765Z,87.26
2017-11-07T22:28:44.326Z,87.27
2017-11-07T22:31:11.902Z,87.35
2017-11-07T22:33:39.508Z,87.47
2017-11-07T22:36:07.216Z,87.43
2017-11-07T22:38:34.794Z,87.54
2017-11-07T22:41:02.357Z,87.61
2017-11-07T22:43:30.128Z,87.64
2017-11-07T22:45:57.688Z,87.54
2017-11-07T22:48:25.243Z,87.57
2017-11-07T22:50:52.838Z,87.71
2017-11-07T22:53:20.426Z,87.81
2017-11-07T22:55:47.991Z,87.80
2017-11-07T22:58:15.530Z,87.95
2017-11-07T23:00:43.113Z,87.98
2017-11-07T23:03:10.664Z,88.14
2017-11-07T23:05:38.217Z,88.19
2017-11-07T23:08:05.780Z,88.16
2017-11-07T23:10:33.343Z,88.19
2017-11-07T23:13:00.910Z,88.19
2017-11-07T23:15:28.506Z,88.31
2017-11-07T23:17:56.113Z,88.52
2017-11-07T23:20:23.668Z,88.70
2017-11-07T23:22:51.349Z,89.15
2017-11-07T23:25:18.914Z,89.22
2017-11-07T23:27:46.467Z,89.18
2017-11-07T23:30:14.298Z,89.34
2017-11-07T23:32:41.831Z,89.24
2017-11-07T23:35:09.377Z,89.17
2017-11-07T23:37:36.953Z,89.30
2017-11-07T23:40:04.571Z,89.55
2017-11-07T23:42:33.005Z,89.75
2017-11-07T23:45:00.641Z,90.13
2017-11-07T23:47:28.215Z,90.30
2017-11-07T23:49:55.745Z,90.55
2017-11-07T23:52:23.297Z,91.18
2017-11-07T23:54:50.859Z,91.66
2017-11-07T23:57:18.463Z,92.05
2017-11-07T23:59:46.029Z,92.20
